• Join FlightAware (Why Join?)
  • Login
  • US Flag 
03:59PM EST


 

Airport Tracker/Info


-or-


 

Live Flight TrackerFlight Track Log ✈ N53361 ✈ 10-Aug-2013 ✈ KRYY - KDNN

Flight Track Log - Related Links

Times and Time Zones

All times are in EDT time to prevent confusion due to time zone crossing. See the N53361 flight status page for this flight to view local times or setup timezone preferences in your user account.

Time Position Orientation Groundspeed Altitude Reporting Facility
EDT Latitude Longitude Course Direction KTS MPH feet Rate Location/Type
09:41AM 34.0833 -84.5833 49° Northeast 95 109 3,000  Level Atlanta TRACON
09:42AM 34.1167 -84.5667 22° Northeast 102 117 3,400 420 Climbing Atlanta TRACON
09:43AM 34.1333 -84.5667 360° North 99 114 3,900 420 Climbing Atlanta TRACON
09:44AM 34.1500 -84.5500 40° Northeast 112 129 4,300 360 Climbing Atlanta TRACON
09:45AM 34.1919 -84.5261 25° Northeast 109 125 4,900 360 Climbing Atlanta Center
09:46AM 34.1077 -84.4259 49° Northeast  Level FlightAware Approximate
09:46AM 34.2169 -84.5111 26° Northeast 102 117 5,300  Level Atlanta Center
09:47AM 34.2422 -84.4936 30° Northeast 97 112 5,700 300 Climbing Atlanta Center
09:48AM 34.2672 -84.4786 26° Northeast 97 112 6,000 120 Climbing Atlanta Center
09:49AM 34.2925 -84.4586 33° Northeast 102 117 6,000 -60 Level Atlanta Center
09:50AM 34.3194 -84.4411 28° Northeast 102 117 5,900 -60 Descending Atlanta Center
09:51AM 34.3467 -84.4211 31° Northeast 102 117 5,900  Level Atlanta Center
09:52AM 34.3739 -84.4036 28° Northeast 102 117 5,900  Level Atlanta Center
09:53AM 34.4011 -84.3886 24° Northeast 102 117 5,900  Level Atlanta Center
09:54AM 34.4303 -84.3764 19° North 107 123 5,900  Level Atlanta Center
09:55AM 34.4514 -84.3561 38° Northeast 112 129 5,900  Level Atlanta Center
09:56AM 34.4764 -84.3336 37° Northeast 112 129 5,900 -60 Level Atlanta Center
09:57AM 34.5056 -84.3211 19° North 107 123 5,800 -120 Descending Atlanta Center
09:58AM 34.5097 -84.3361 289° West 56 64 5,700 -300 Descending Atlanta Center
09:59AM 34.4931 -84.3589 228° Southwest 56 64 5,300 -420 Descending Atlanta Center
10:00AM 34.4889 -84.3942 262° West 86 99 4,900 -420 Descending Atlanta Center
10:01AM 34.4992 -84.4219 294° West 91 105 4,500 -360 Descending Atlanta Center
10:02AM 34.5072 -84.4572 285° West 99 114 4,200 -360 Descending Atlanta Center
10:03AM 34.5136 -84.4825 287° West 94 108 3,800 -300 Descending Atlanta Center
10:04AM 34.5300 -84.5103 306° West 94 108 3,600 -120 Descending Atlanta Center
10:05AM 34.5447 -84.5356 305° West 94 108 3,600 -60 Level Atlanta Center
10:06AM 34.5569 -84.5633 298° West 99 114 3,500 -60 Descending Atlanta Center
10:07AM 34.5672 -84.5939 292° West 94 108 3,500 -60 Level Atlanta Center
10:08AM 34.5756 -84.6242 288° West 94 108 3,400 -60 Descending Atlanta Center
10:09AM 34.5794 -84.6519 280° West 89 102 3,400  Level Atlanta Center
10:10AM 34.5900 -84.6772 297° West 84 97 3,400  Level Atlanta Center
10:11AM 34.6044 -84.7050 302° West 89 102 3,500  Climbing Atlanta Center
10:12AM 34.6208 -84.7228 318° Northwest 94 108 3,400 -60 Descending Atlanta Center
10:13AM 34.6353 -84.7533 300° West 105 121 3,400  Level Atlanta Center
10:14AM 34.6478 -84.7786 301° West 100 115 3,400  Level Atlanta Center
10:15AM 34.6683 -84.8064 312° West 100 115 3,400  Level Atlanta Center
10:16AM 34.6850 -84.8294 311° West 94 108 3,500  Climbing Atlanta Center
10:17AM 34.7036 -84.8550 312° West 94 108 3,500 -60 Level Atlanta Center
10:18AM 34.7075 -84.8828 280° West 94 108 3,400 -120 Descending Atlanta Center